Flight Track Log - Related Links

Times and Time Zones

All times are in EDT time to prevent confusion due to time zone crossing. See the 9Y-BGI flight status page for this flight to view local times or setup timezone preferences in your user account.

Time Position Orientation Groundspeed Altitude Reporting Facility
EDT Latitude Longitude Course Direction KTS MPH feet Rate Location/Type
Tue 04:02:21 PM 40.6500 -73.8167 223° Southwest 169 194 1,600  Level New York TRACON
Tue 04:03:21 PM 40.6000 -73.8333 194° South 246 283 3,100 2,118 Climbing New York TRACON
Tue 04:05:28 PM 40.4931 -73.6611 129° Southeast 291 335 8,200 2,362 Climbing New York Center
Tue 04:06:29 PM 40.4319 -73.5958 141° Southeast 311 358 10,500 2,083 Climbing New York Center
Tue 04:07:00 PM 40.0829 -73.2505 223° Southwest  Level FlightAware Approximate
Tue 04:07:29 PM 40.3444 -73.5078 143° Southeast 354 407 12,400  Level New York Center
Tue 04:08:29 PM 40.2628 -73.4367 146° Southeast 386 444 15,400 2,975 Climbing New York Center
Tue 04:09:30 PM 40.1519 -73.4514 186° South 362 417 18,400 2,492 Climbing New York Center
Tue 04:10:27 PM 40.0550 -73.5044 203° Southwest 370 426 20,300 1,633 Climbing New York Center
Tue 04:12:19 PM 39.8831 -73.6419 212° Southwest 388 447 23,000 1,605 Climbing Washington Center
Tue 04:13:19 PM 39.7842 -73.7203 211° Southwest 404 465 24,900 1,400 Climbing Washington Center
Tue 04:14:19 PM 39.6833 -73.8039 213° Southwest 425 489 25,800 1,250 Climbing Washington Center
Tue 04:15:19 PM 39.5783 -73.8844 211° Southwest 436 502 27,400 1,650 Climbing Washington Center
Tue 04:16:19 PM 39.4711 -73.9731 213° Southwest 450 518 29,100 1,750 Climbing Washington Center
Tue 04:17:19 PM 39.3600 -74.0722 215° Southwest 450 518 30,900 1,750 Climbing Washington Center
Tue 04:18:19 PM 39.2653 -74.1733 220° Southwest 450 518 32,600 1,450 Climbing Washington Center
Tue 04:19:19 PM 39.1686 -74.2797 220° Southwest 455 524 33,800 1,350 Climbing Washington Center
Tue 04:20:19 PM 39.0758 -74.3858 222° Southwest 455 524 35,300 1,350 Climbing Washington Center
Tue 04:21:19 PM 38.9811 -74.4861 219° Southwest 455 524 36,500 1,100 Climbing Washington Center
Tue 04:22:19 PM 38.8881 -74.5861 220° Southwest 455 524 37,500 750 Climbing Washington Center
Tue 04:23:19 PM 38.7911 -74.6942 221° Southwest 455 524 38,000 250 Climbing Washington Center
Tue 04:24:19 PM 38.6936 -74.7911 218° Southwest 455 524 38,000  Level Washington Center
Tue 04:25:19 PM 38.5986 -74.8931 220° Southwest 455 524 38,000  Level Washington Center
Tue 04:26:19 PM 38.5031 -75.0000 221° Southwest 455 524 38,000  Level Washington Center
Tue 04:27:19 PM 38.4056 -75.1017 219° Southwest 455 524 38,000  Level Washington Center
Tue 04:28:19 PM 38.3100 -75.2000 219° Southwest 455 524 38,000  Level Washington Center
Tue 04:29:19 PM 38.2167 -75.2983 220° Southwest 450 518 38,000  Level Washington Center
Tue 04:30:19 PM 38.1228 -75.4017 221° Southwest 450 518 38,000  Level Washington Center
Tue 04:31:19 PM 38.0231 -75.4889 215° Southwest 450 518 38,000  Level Washington Center
Tue 04:32:19 PM 37.9103 -75.5575 206° Southwest 450 518 38,000  Level Washington Center
Tue 04:33:19 PM 37.7997 -75.6258 206° Southwest 444 511 38,000  Level Washington Center
Tue 04:34:19 PM 37.6872 -75.6889 204° Southwest 444 511 38,000  Level Washington Center
Tue 04:35:19 PM 37.5767 -75.7542 205° Southwest 444 511 38,000  Level Washington Center
Tue 04:36:19 PM 37.4639 -75.8222 206° Southwest 444 511 38,000  Level Washington Center
Tue 04:37:19 PM 37.3531 -75.8897 206° Southwest 444 511 38,000  Level Washington Center
Tue 04:38:19 PM 37.2403 -75.9544 205° Southwest 444 511 38,000  Level Washington Center
Tue 04:39:19 PM 37.1294 -76.0192 205° Southwest 444 511 38,000  Level Washington Center
Tue 04:40:19 PM 37.0167 -76.0861 205° Southwest 444 511 38,000  Level Washington Center
Tue 04:41:19 PM 36.8975 -76.1478 202° Southwest 449 517 38,000  Level Washington Center
Tue 04:42:19 PM 36.7867 -76.2117 205° Southwest 454 522 38,000  Level Washington Center
Tue 04:43:19 PM 36.6883 -76.2731 207° Southwest 449 517 38,000  Level Washington Center
Tue 04:44:19 PM 36.5794 -76.3342 204° Southwest 443 510 38,000  Level Washington Center
Tue 04:45:19 PM 36.4664 -76.3978 204° Southwest 443 510 38,000  Level Washington Center
Tue 04:46:19 PM 36.3572 -76.4611 205° Southwest 443 510 38,000  Level Washington Center
Tue 04:47:19 PM 36.2464 -76.5217 204° Southwest 443 510 38,000  Level Washington Center
Tue 04:48:19 PM 36.1353 -76.5872 205° Southwest 443 510 38,000  Level Washington Center
Tue 04:49:19 PM 36.0219 -76.6500 204° Southwest 443 510 38,000  Level Washington Center
Tue 04:50:19 PM 35.9108 -76.7103 204° Southwest 443 510 38,000  Level Washington Center
Tue 04:51:19 PM 35.7997 -76.7728 205° Southwest 443 510 38,000  Level Washington Center
Tue 04:52:19 PM 35.6906 -76.8325 204° Southwest 443 510 38,000  Level Washington Center
Tue 04:53:19 PM 35.5708 -76.9019 205° Southwest 443 510 38,000  Level Washington Center
Tue 04:54:19 PM 35.4597 -76.9639 204° Southwest 443 510 38,000  Level Washington Center
Tue 04:55:19 PM 35.3464 -77.0256 204° Southwest 443 510 38,000  Level Washington Center
Tue 04:56:19 PM 35.2350 -77.0872 204° Southwest 448 516 38,000  Level Washington Center
Tue 04:57:19 PM 35.1194 -77.1511 204° Southwest 448 516 38,000  Level Washington Center
Tue 04:58:19 PM 35.0100 -77.2100 204° Southwest 448 516 38,000  Level Washington Center
Tue 04:59:19 PM 34.8986 -77.2736 205° Southwest 448 516 38,000  Level Washington Center
Tue 05:00:19 PM 34.7869 -77.3394 206° Southwest 448 516 38,000  Level Washington Center
Tue 05:01:19 PM 34.6736 -77.3978 203° Southwest 448 516 38,000  Level Washington Center
Tue 05:02:19 PM 34.5581 -77.4531 202° Southwest 448 516 38,000  Level Washington Center
Tue 05:03:19 PM 34.4344 -77.4756 189° South 437 503 38,000  Level Washington Center
Tue 05:04:19 PM 34.3111 -77.4953 188° South 442 509 38,000  Level Washington Center
Tue 05:05:19 PM 34.1878 -77.5125 187° South 447 514 38,000  Level Washington Center
Tue 05:06:19 PM 34.0642 -77.5347 188° South 452 520 38,000  Level Washington Center
Tue 05:09:04 PM 33.7375 -77.5883 188° South 458 527 38,000  Level Jacksonville Center
Tue 05:10:04 PM 33.6150 -77.6056 187° South 458 527 38,000  Level Jacksonville Center
Tue 05:11:04 PM 33.4928 -77.6253 188° South 458 527 38,000  Level Jacksonville Center
Tue 05:12:04 PM 33.3706 -77.6475 189° South 458 527 38,000  Level Jacksonville Center
Tue 05:13:04 PM 33.2483 -77.6672 188° South 452 520 38,000  Level Jacksonville Center
Tue 05:14:04 PM 33.1281 -77.6892 189° South 452 520 38,000  Level Jacksonville Center
Tue 05:15:04 PM 33.0039 -77.7086 187° South 452 520 38,000  Level Jacksonville Center
Tue 05:16:04 PM 32.8814 -77.7256 187° South 447 514 38,000  Level Jacksonville Center
Tue 05:17:04 PM 32.7592 -77.7475 189° South 447 514 38,000  Level Jacksonville Center
Tue 05:18:04 PM 32.6369 -77.7717 189° South 447 514 38,000  Level Jacksonville Center
Tue 05:19:04 PM 32.5144 -77.7883 187° South 447 514 38,000  Level Jacksonville Center
Tue 05:20:04 PM 32.3919 -77.8053 187° South 447 514 38,000  Level Jacksonville Center
Tue 05:21:04 PM 32.2658 -77.8319 190° South 447 514 38,000  Level Jacksonville Center
Tue 05:22:04 PM 32.1433 -77.8483 186° South 447 514 38,000  Level Jacksonville Center
Tue 05:23:04 PM 32.0208 -77.8650 187° South 447 514 38,000  Level Jacksonville Center
Tue 05:24:04 PM 31.8986 -77.8886 189° South 447 514 38,000  Level Jacksonville Center
Tue 05:25:04 PM 31.7742 -77.9078 187° South 447 514 38,000  Level Jacksonville Center
Tue 05:26:04 PM 31.6517 -77.9264 187° South 447 514 38,000  Level Jacksonville Center
Tue 05:27:04 PM 31.5292 -77.9453 187° South 447 514 38,000  Level Jacksonville Center
Tue 05:28:04 PM 31.4069 -77.9639 187° South 447 514 38,000  Level Jacksonville Center
Tue 05:29:04 PM 31.2825 -77.9875 189° South 442 509 38,000  Level Jacksonville Center
Tue 05:30:04 PM 31.1625 -78.0108 189° South 442 509 38,000  Level Jacksonville Center
Tue 05:31:04 PM 31.0419 -78.0292 187° South 442 509 38,000  Level Jacksonville Center
Tue 05:32:04 PM 30.9156 -78.0500 188° South 444 511 38,000  Level Jacksonville Center
Tue 05:33:04 PM 30.7825 -78.0689 187° South 453 521 38,000  Level Jacksonville Center
Tue 05:34:04 PM 30.6603 -78.0897 188° South 457 526 38,000  Level Jacksonville Center
Tue 05:36:20 PM 30.3997 -78.1303 188° South 443 510 38,000  Level Miami Center
Tue 05:37:20 PM 30.2703 -78.1503 188° South 448 516 38,000  Level Miami Center
Tue 05:38:20 PM 30.1514 -78.1656 186° South 457 526 38,000  Level Miami Center
Tue 05:39:20 PM 30.0178 -78.1953 191° South 457 526 38,000  Level Miami Center
Tue 05:40:20 PM 29.8967 -78.2175 189° South 448 516 38,000  Level Miami Center
Tue 05:41:20 PM 29.7692 -78.2281 184° South 448 516 38,000  Level Miami Center
Tue 05:42:20 PM 29.6500 -78.2528 190° South 448 516 38,000  Level Miami Center
Tue 05:43:20 PM 29.5269 -78.2678 186° South 443 510 38,000  Level Miami Center
Tue 05:44:20 PM 29.4036 -78.2878 188° South 448 516 38,000  Level Miami Center
Tue 05:45:20 PM 29.2803 -78.3053 187° South 359 413 38,000  Level Miami Center
Tue 05:46:20 PM 29.1592 -78.3250 188° South 394 453 38,000  Level Miami Center
Tue 05:47:20 PM 29.0358 -78.3422 187° South 437 503 38,000  Level Miami Center
Tue 05:48:20 PM 28.9147 -78.3619 188° South 447 514 38,000  Level Miami Center
Tue 05:49:20 PM 28.7872 -78.3792 187° South 452 520 38,000  Level Miami Center
Tue 05:50:20 PM 28.6639 -78.3989 188° South 452 520 38,000  Level Miami Center
Tue 05:51:20 PM 28.5406 -78.4161 187° South 446 513 38,000  Level Miami Center
Tue 05:52:20 PM 28.4172 -78.4356 188° South 451 519 38,000  Level Miami Center
Tue 05:53:20 PM 28.2917 -78.4528 187° South 457 526 38,000  Level Miami Center
Tue 05:54:20 PM 28.1725 -78.4747 189° South 450 518 38,000  Level Miami Center
Tue 05:55:20 PM 28.0492 -78.4917 187° South 445 512 38,000  Level Miami Center
Tue 05:56:20 PM 27.9217 -78.5086 187° South 450 518 38,000  Level Miami Center
Tue 05:57:20 PM 27.8044 -78.5258 187° South 450 518 38,000  Level Miami Center
Tue 05:58:20 PM 27.6811 -78.5450 188° South 444 511 38,000  Level Miami Center
Tue 05:59:20 PM 27.5556 -78.5644 188° South 449 517 38,000  Level Miami Center
Tue 06:00:20 PM 27.4342 -78.5811 187° South 449 517 38,000  Level Miami Center
Tue 06:01:20 PM 27.3108 -78.6006 188° South 449 517 38,000  Level Miami Center
Tue 06:02:20 PM 27.1872 -78.6197 188° South 449 517 38,000  Level Miami Center
Tue 06:03:20 PM 27.0617 -78.6386 188° South 449 517 38,000  Level Miami Center
Tue 06:04:20 PM 26.9406 -78.6531 186° South 449 517 38,000  Level Miami Center
Tue 06:05:20 PM 26.8400 -78.6681 188° South 449 517 38,000  Level Miami Center
Tue 06:06:20 PM 26.7144 -78.6869 188° South 443 510 38,000  Level Miami Center
Tue 06:07:20 PM 26.5847 -78.7011 186° South 449 517 38,000  Level Miami Center
Tue 06:08:20 PM 26.4611 -78.7203 188° South 449 517 38,000  Level Miami Center
Tue 06:09:20 PM 26.3336 -78.7367 187° South 449 517 38,000  Level Miami Center
Tue 06:10:20 PM 26.2100 -78.7556 188° South 449 517 38,000  Level Miami Center
Tue 06:11:20 PM 26.0886 -78.7769 189° South 454 522 38,000  Level Miami Center
Tue 06:12:20 PM 25.9650 -78.7956 188° South 449 517 38,000  Level Miami Center
Tue 06:13:20 PM 25.8417 -78.8122 187° South 444 511 38,000 200 Level Miami Center
Tue 06:14:20 PM 25.7161 -78.8239 185° South 449 517 38,400 500 Climbing Miami Center
Tue 06:15:20 PM 25.5844 -78.8219 179° South 459 528 39,000 300 Climbing Miami Center
Tue 06:16:20 PM 25.4611 -78.8219 180° South 459 528 39,000  Level Miami Center
Tue 06:17:20 PM 25.3317 -78.8222 180° South 459 528 39,000  Level Miami Center
Tue 06:18:20 PM 25.2042 -78.8225 180° South 464 534 39,000  Level Miami Center
Tue 06:19:20 PM 25.0767 -78.8275 182° South 458 527 39,000  Level Miami Center
Tue 06:20:20 PM 24.9469 -78.8300 181° South 458 527 39,000  Level Miami Center
Tue 06:21:20 PM 24.8194 -78.8347 182° South 458 527 39,000  Level Miami Center
Tue 06:22:20 PM 24.6900 -78.8372 181° South 465 535 39,000  Level Miami Center
Tue 06:23:20 PM 24.5644 -78.8397 181° South 458 527 39,000  Level Miami Center
Tue 06:24:20 PM 24.4369 -78.8447 182° South 460 529 39,000  Level Miami Center
Tue 06:25:20 PM 24.3075 -78.8450 180° South 460 529 39,000  Level Miami Center
Tue 06:26:20 PM 24.1800 -78.8497 182° South 460 529 39,000  Level Miami Center
Tue 06:27:20 PM 24.0544 -78.8522 181° South 460 529 39,000  Level Miami Center
Tue 06:29:00 PM 23.8559 -78.8309 179° South  Level FlightAware Approximate
Tue 06:36:00 PM 23.0221 -78.8169 179° South  Level FlightAware Approximate
Tue 06:37:00 PM 22.9030 -78.8149 179° South  Level FlightAware Approximate
Tue 06:38:00 PM 22.7839 -78.8130 179° South  Level FlightAware Approximate
Tue 06:39:00 PM 22.6648 -78.8110 179° South  Level FlightAware Approximate
Tue 06:40:00 PM 22.5457 -78.8090 179° South  Level FlightAware Approximate
Tue 06:41:00 PM 22.4266 -78.8070 179° South  Level FlightAware Approximate
Tue 06:42:00 PM 22.3075 -78.8051 179° South  Level FlightAware Approximate
Tue 06:43:00 PM 22.1884 -78.8031 179° South  Level FlightAware Approximate
Tue 06:44:00 PM 22.0693 -78.8011 179° South  Level FlightAware Approximate
Tue 06:45:00 PM 21.9502 -78.8033 184° South  Level FlightAware Approximate
Tue 06:46:00 PM 21.8313 -78.8113 184° South  Level FlightAware Approximate
Tue 06:47:00 PM 21.7124 -78.8193 184° South  Level FlightAware Approximate
Tue 06:48:00 PM 21.5935 -78.8272 184° South  Level FlightAware Approximate
Tue 06:49:00 PM 21.4746 -78.8351 184° South  Level FlightAware Approximate
Tue 06:50:00 PM 21.3557 -78.8431 184° South  Level FlightAware Approximate
Tue 06:51:00 PM 21.2368 -78.8510 184° South  Level FlightAware Approximate
Tue 06:52:00 PM 21.1179 -78.8588 184° South  Level FlightAware Approximate
Tue 06:53:00 PM 20.9991 -78.8667 182° South  Level FlightAware Approximate
Tue 06:54:00 PM 20.8800 -78.8721 182° South  Level FlightAware Approximate
Tue 06:55:00 PM 20.7610 -78.8775 182° South  Level FlightAware Approximate
Tue 06:56:00 PM 20.6420 -78.8829 182° South  Level FlightAware Approximate
Tue 06:57:00 PM 20.5231 -78.8915 184° South  Level FlightAware Approximate
Tue 06:58:00 PM 20.4043 -78.9003 184° South  Level FlightAware Approximate
Tue 06:59:00 PM 20.2855 -78.9091 184° South  Level FlightAware Approximate
Tue 07:00:00 PM 20.1666 -78.9167 180° South  Level FlightAware Approximate
Tue 07:01:00 PM 20.0481 -78.9253 189° South  Level FlightAware Approximate
Tue 07:02:00 PM 19.9454 -78.8867 150° Southeast  Level FlightAware Approximate
Tue 07:03:00 PM 19.8427 -78.8225 150° Southeast  Level FlightAware Approximate
Tue 07:04:00 PM 19.7435 -78.7524 146° Southeast  Level FlightAware Approximate
Tue 07:05:00 PM 19.6446 -78.6818 146° Southeast  Level FlightAware Approximate
Tue 07:06:00 PM 19.5444 -78.6135 148° Southeast  Level FlightAware Approximate
Tue 07:07:00 PM 19.4430 -78.5472 148° Southeast  Level FlightAware Approximate
Tue 07:08:00 PM 19.3416 -78.4809 148° Southeast  Level FlightAware Approximate
Tue 07:09:00 PM 19.2402 -78.4146 148° Southeast  Level FlightAware Approximate
Tue 07:10:00 PM 19.1390 -78.3482 148° Southeast  Level FlightAware Approximate
Tue 07:11:00 PM 19.0382 -78.2810 148° Southeast  Level FlightAware Approximate
Tue 07:12:00 PM 18.9364 -78.2156 149° Southeast  Level FlightAware Approximate
Tue 07:13:00 PM 18.8343 -78.1506 149° Southeast  Level FlightAware Approximate
Tue 07:14:00 PM 18.7372 -78.0779 145° Southeast  Level FlightAware Approximate
Tue 07:15:00 PM 18.6395 -78.0062 137° Southeast  Level FlightAware Approximate
Tue 07:16:00 PM 18.5344 -77.9511 137° Southeast  Level FlightAware Approximate
Tue 07:17:00 PM 18.5037 -77.9134 90° East  Level Estimated
Tue 07:18:00 PM 18.5037 -77.9134 90° East  Level Estimated
Tue 07:19:00 PM 18.5037 -77.9134 90° East  Level Estimated
Tue 07:20:00 PM 18.5037 -77.9134 90° East  Level Estimated
Tue 07:21:00 PM 18.5037 -77.9134 90° East  Level Estimated
Tue 07:22:00 PM 18.5037 -77.9134 90° East  Level Estimated
Tue 07:23:00 PM 18.5037 -77.9134 90° East  Level Estimated
Tue 07:24:00 PM 18.5037 -77.9134 90° East  Level Estimated
Tue 07:25:00 PM 18.5037 -77.9134 90° East  Level Estimated
Tue 07:26:00 PM 18.5037 -77.9134 90° East  Level Estimated
Tue 07:27:00 PM 18.5037 -77.9134 90° East  Level Estimated
Tue 07:28:00 PM 18.5037 -77.9134 90° East  Level Estimated
Tue 07:29:00 PM 18.5037 -77.9134 90° East  Level Estimated
Tue 07:30:00 PM 18.5037 -77.9134 90° East  Level Estimated
Tue 07:31:00 PM 18.5037 -77.9134 90° East  Level Estimated
Tue 07:32:00 PM 18.5037 -77.9134 90° East  Level Estimated
Tue 07:33:00 PM 18.5037 -77.9134 90° East  Level Estimated
Tue 07:34:00 PM 18.5037 -77.9134 90° East  Level Estimated
Tue 07:35:00 PM 18.5037 -77.9134 90° East  Level Estimated
Tue 07:36:00 PM 18.5037 -77.9134 90° East  Level Estimated

Login

Don't have an account? Register now (free) for customized features, flight alerts, and more!